sensor_id;sensor_type;location;lat;lon;timestamp;temperature;humidity
38604;DHT22;24924;50.054;8.790;2023-06-22T00:00:49;23.00;99.90
38604;DHT22;24924;50.054;8.790;2023-06-22T00:03:15;22.90;99.90
38604;DHT22;24924;50.054;8.790;2023-06-22T00:05:41;22.90;99.90
38604;DHT22;24924;50.054;8.790;2023-06-22T00:08:07;22.90;99.90
38604;DHT22;24924;50.054;8.790;2023-06-22T00:10:33;22.80;99.90
38604;DHT22;24924;50.054;8.790;2023-06-22T00:12:59;22.70;99.90
38604;DHT22;24924;50.054;8.790;2023-06-22T00:15:25;22.80;99.90
38604;DHT22;24924;50.054;8.790;2023-06-22T00:17:51;22.80;99.90
38604;DHT22;24924;50.054;8.790;2023-06-22T00:20:17;22.80;99.90
38604;DHT22;24924;50.054;8.790;2023-06-22T00:22:45;22.70;99.90
38604;DHT22;24924;50.054;8.790;2023-06-22T00:25:11;22.70;99.90
38604;DHT22;24924;50.054;8.790;2023-06-22T00:27:37;22.60;99.90
38604;DHT22;24924;50.054;8.790;2023-06-22T00:30:06;22.40;99.90
38604;DHT22;24924;50.054;8.790;2023-06-22T00:32:32;22.40;99.90
38604;DHT22;24924;50.054;8.790;2023-06-22T00:34:58;22.30;99.90
38604;DHT22;24924;50.054;8.790;2023-06-22T00:37:23;22.30;99.90
38604;DHT22;24924;50.054;8.790;2023-06-22T00:39:52;22.30;99.90
38604;DHT22;24924;50.054;8.790;2023-06-22T00:42:19;22.20;99.90
38604;DHT22;24924;50.054;8.790;2023-06-22T00:44:46;22.20;99.90
38604;DHT22;24924;50.054;8.790;2023-06-22T00:47:15;22.20;99.90
38604;DHT22;24924;50.054;8.790;2023-06-22T00:49:41;22.20;99.90
38604;DHT22;24924;50.054;8.790;2023-06-22T00:52:08;22.80;99.90
38604;DHT22;24924;50.054;8.790;2023-06-22T00:54:36;22.30;99.90
38604;DHT22;24924;50.054;8.790;2023-06-22T00:57:02;22.40;99.90
38604;DHT22;24924;50.054;8.790;2023-06-22T00:59:28;22.40;99.90
38604;DHT22;24924;50.054;8.790;2023-06-22T01:01:54;22.50;99.90
38604;DHT22;24924;50.054;8.790;2023-06-22T01:04:24;22.40;99.90
38604;DHT22;24924;50.054;8.790;2023-06-22T01:06:59;22.40;99.90
38604;DHT22;24924;50.054;8.790;2023-06-22T01:09:32;22.50;99.90
38604;DHT22;24924;50.054;8.790;2023-06-22T01:12:04;22.40;99.90
38604;DHT22;24924;50.054;8.790;2023-06-22T01:14:46;22.30;99.90
38604;DHT22;24924;50.054;8.790;2023-06-22T01:17:15;22.50;99.90
38604;DHT22;24924;50.054;8.790;2023-06-22T01:19:45;22.60;99.90
38604;DHT22;24924;50.054;8.790;2023-06-22T01:22:20;22.70;99.90
38604;DHT22;24924;50.054;8.790;2023-06-22T01:24:54;22.50;99.90
38604;DHT22;24924;50.054;8.790;2023-06-22T01:29:59;22.10;99.90
38604;DHT22;24924;50.054;8.790;2023-06-22T01:32:34;22.00;99.90
38604;DHT22;24924;50.054;8.790;2023-06-22T01:35:01;21.80;99.90
38604;DHT22;24924;50.054;8.790;2023-06-22T01:37:31;21.70;99.90
38604;DHT22;24924;50.054;8.790;2023-06-22T01:39:58;21.70;99.90
38604;DHT22;24924;50.054;8.790;2023-06-22T01:42:25;21.60;99.90
38604;DHT22;24924;50.054;8.790;2023-06-22T01:44:55;21.50;99.90
38604;DHT22;24924;50.054;8.790;2023-06-22T01:47:25;21.50;99.90
38604;DHT22;24924;50.054;8.790;2023-06-22T01:49:51;21.40;99.90
38604;DHT22;24924;50.054;8.790;2023-06-22T01:52:19;21.40;99.90
38604;DHT22;24924;50.054;8.790;2023-06-22T01:54:46;21.40;99.90
38604;DHT22;24924;50.054;8.790;2023-06-22T01:57:12;21.40;99.90
38604;DHT22;24924;50.054;8.790;2023-06-22T01:59:48;21.30;99.90
38604;DHT22;24924;50.054;8.790;2023-06-22T02:02:20;21.30;99.90
38604;DHT22;24924;50.054;8.790;2023-06-22T02:04:51;21.20;99.90
38604;DHT22;24924;50.054;8.790;2023-06-22T02:07:18;21.20;99.90
38604;DHT22;24924;50.054;8.790;2023-06-22T02:09:49;21.10;99.90
38604;DHT22;24924;50.054;8.790;2023-06-22T02:12:18;21.30;99.90
38604;DHT22;24924;50.054;8.790;2023-06-22T02:14:47;21.20;99.90
38604;DHT22;24924;50.054;8.790;2023-06-22T02:17:13;21.10;99.90
38604;DHT22;24924;50.054;8.790;2023-06-22T02:19:43;21.00;99.90
38604;DHT22;24924;50.054;8.790;2023-06-22T02:22:09;21.00;99.90
38604;DHT22;24924;50.054;8.790;2023-06-22T02:24:36;20.90;99.90
38604;DHT22;24924;50.054;8.790;2023-06-22T02:27:02;20.90;99.90
38604;DHT22;24924;50.054;8.790;2023-06-22T02:29:29;20.90;99.90
38604;DHT22;24924;50.054;8.790;2023-06-22T02:31:55;20.90;99.90
38604;DHT22;24924;50.054;8.790;2023-06-22T02:34:21;20.90;99.90
38604;DHT22;24924;50.054;8.790;2023-06-22T02:36:48;20.90;99.90
38604;DHT22;24924;50.054;8.790;2023-06-22T02:39:20;20.80;99.90
38604;DHT22;24924;50.054;8.790;2023-06-22T02:41:49;20.80;99.90
38604;DHT22;24924;50.054;8.790;2023-06-22T02:44:15;20.80;99.90
38604;DHT22;24924;50.054;8.790;2023-06-22T02:46:42;20.80;99.90
38604;DHT22;24924;50.054;8.790;2023-06-22T02:49:07;20.80;99.90
38604;DHT22;24924;50.054;8.790;2023-06-22T02:51:34;20.80;99.90
38604;DHT22;24924;50.054;8.790;2023-06-22T02:54:00;20.70;99.90
38604;DHT22;24924;50.054;8.790;2023-06-22T02:56:28;20.70;99.90
38604;DHT22;24924;50.054;8.790;2023-06-22T02:58:59;20.80;99.90
38604;DHT22;24924;50.054;8.790;2023-06-22T03:01:33;20.70;99.90
38604;DHT22;24924;50.054;8.790;2023-06-22T03:04:10;20.70;99.90
38604;DHT22;24924;50.054;8.790;2023-06-22T03:06:36;20.60;99.90
38604;DHT22;24924;50.054;8.790;2023-06-22T03:09:04;20.60;99.90
38604;DHT22;24924;50.054;8.790;2023-06-22T03:11:31;20.50;99.90
38604;DHT22;24924;50.054;8.790;2023-06-22T03:13:59;20.50;99.90
38604;DHT22;24924;50.054;8.790;2023-06-22T03:16:24;20.50;99.90
38604;DHT22;24924;50.054;8.790;2023-06-22T03:18:50;20.50;99.90
38604;DHT22;24924;50.054;8.790;2023-06-22T03:21:43;20.40;99.90
38604;DHT22;24924;50.054;8.790;2023-06-22T03:24:08;20.60;99.90
38604;DHT22;24924;50.054;8.790;2023-06-22T03:26:35;20.50;99.90
38604;DHT22;24924;50.054;8.790;2023-06-22T03:29:00;20.40;99.90
38604;DHT22;24924;50.054;8.790;2023-06-22T03:31:28;20.50;99.90
38604;DHT22;24924;50.054;8.790;2023-06-22T03:33:54;20.40;99.90
38604;DHT22;24924;50.054;8.790;2023-06-22T03:36:22;20.40;99.90
38604;DHT22;24924;50.054;8.790;2023-06-22T03:38:49;20.40;99.90
38604;DHT22;24924;50.054;8.790;2023-06-22T03:41:16;20.30;99.90
38604;DHT22;24924;50.054;8.790;2023-06-22T03:43:42;20.20;99.90
38604;DHT22;24924;50.054;8.790;2023-06-22T03:46:08;20.30;99.90
38604;DHT22;24924;50.054;8.790;2023-06-22T03:48:34;20.40;99.90
38604;DHT22;24924;50.054;8.790;2023-06-22T03:51:01;20.50;99.90
38604;DHT22;24924;50.054;8.790;2023-06-22T03:53:27;20.60;99.90
38604;DHT22;24924;50.054;8.790;2023-06-22T03:55:53;20.50;99.90
38604;DHT22;24924;50.054;8.790;2023-06-22T03:58:19;20.60;99.90
38604;DHT22;24924;50.054;8.790;2023-06-22T04:00:46;20.70;99.90
38604;DHT22;24924;50.054;8.790;2023-06-22T04:03:13;20.70;99.90
38604;DHT22;24924;50.054;8.790;2023-06-22T04:05:39;20.80;99.90
38604;DHT22;24924;50.054;8.790;2023-06-22T04:08:06;20.70;99.90
38604;DHT22;24924;50.054;8.790;2023-06-22T04:10:31;20.70;99.90
38604;DHT22;24924;50.054;8.790;2023-06-22T04:12:57;20.70;99.90
38604;DHT22;24924;50.054;8.790;2023-06-22T04:15:23;20.60;99.90
38604;DHT22;24924;50.054;8.790;2023-06-22T04:17:48;20.70;99.90
38604;DHT22;24924;50.054;8.790;2023-06-22T04:20:14;20.70;99.90
38604;DHT22;24924;50.054;8.790;2023-06-22T04:22:40;20.70;99.90
38604;DHT22;24924;50.054;8.790;2023-06-22T04:25:07;20.70;99.90
38604;DHT22;24924;50.054;8.790;2023-06-22T04:27:35;20.70;99.90
38604;DHT22;24924;50.054;8.790;2023-06-22T04:30:07;20.80;99.90
38604;DHT22;24924;50.054;8.790;2023-06-22T04:32:36;20.80;99.90
38604;DHT22;24924;50.054;8.790;2023-06-22T04:35:03;20.90;99.90
38604;DHT22;24924;50.054;8.790;2023-06-22T04:37:30;20.90;99.90
38604;DHT22;24924;50.054;8.790;2023-06-22T04:39:56;21.00;99.90
38604;DHT22;24924;50.054;8.790;2023-06-22T04:42:22;21.10;99.90
38604;DHT22;24924;50.054;8.790;2023-06-22T04:44:48;21.00;99.90
38604;DHT22;24924;50.054;8.790;2023-06-22T04:47:13;21.00;99.90
38604;DHT22;24924;50.054;8.790;2023-06-22T04:49:39;21.10;99.90
38604;DHT22;24924;50.054;8.790;2023-06-22T04:52:10;21.10;99.90
38604;DHT22;24924;50.054;8.790;2023-06-22T04:54:37;21.00;99.90
38604;DHT22;24924;50.054;8.790;2023-06-22T04:57:06;21.10;99.90
38604;DHT22;24924;50.054;8.790;2023-06-22T04:59:36;21.20;99.90
38604;DHT22;24924;50.054;8.790;2023-06-22T05:02:05;21.30;99.90
38604;DHT22;24924;50.054;8.790;2023-06-22T05:04:32;21.30;99.90
38604;DHT22;24924;50.054;8.790;2023-06-22T05:06:59;21.30;99.90
38604;DHT22;24924;50.054;8.790;2023-06-22T05:09:25;21.40;99.90
38604;DHT22;24924;50.054;8.790;2023-06-22T05:11:51;21.50;99.90
38604;DHT22;24924;50.054;8.790;2023-06-22T05:14:18;21.60;99.90
38604;DHT22;24924;50.054;8.790;2023-06-22T05:16:45;21.60;99.90
38604;DHT22;24924;50.054;8.790;2023-06-22T05:19:11;21.50;99.90
38604;DHT22;24924;50.054;8.790;2023-06-22T05:21:37;21.50;99.90
38604;DHT22;24924;50.054;8.790;2023-06-22T05:24:04;21.50;99.90
38604;DHT22;24924;50.054;8.790;2023-06-22T05:26:31;21.50;99.90
38604;DHT22;24924;50.054;8.790;2023-06-22T05:28:58;21.50;99.90
38604;DHT22;24924;50.054;8.790;2023-06-22T05:31:24;21.60;99.90
38604;DHT22;24924;50.054;8.790;2023-06-22T05:33:52;21.60;99.90
38604;DHT22;24924;50.054;8.790;2023-06-22T05:36:18;21.60;99.90
38604;DHT22;24924;50.054;8.790;2023-06-22T05:38:45;21.60;99.90
38604;DHT22;24924;50.054;8.790;2023-06-22T05:41:11;21.70;99.90
38604;DHT22;24924;50.054;8.790;2023-06-22T05:43:37;21.80;99.90
38604;DHT22;24924;50.054;8.790;2023-06-22T05:46:04;21.90;99.90
38604;DHT22;24924;50.054;8.790;2023-06-22T05:48:30;22.00;99.90
38604;DHT22;24924;50.054;8.790;2023-06-22T05:50:56;22.10;99.90
38604;DHT22;24924;50.054;8.790;2023-06-22T05:53:22;22.10;99.90
38604;DHT22;24924;50.054;8.790;2023-06-22T05:55:48;22.30;99.90
38604;DHT22;24924;50.054;8.790;2023-06-22T05:58:14;22.40;99.90
38604;DHT22;24924;50.054;8.790;2023-06-22T06:00:40;22.50;99.90
38604;DHT22;24924;50.054;8.790;2023-06-22T06:03:07;22.50;99.90
38604;DHT22;24924;50.054;8.790;2023-06-22T06:05:34;22.60;99.90
38604;DHT22;24924;50.054;8.790;2023-06-22T06:08:00;22.70;99.90
38604;DHT22;24924;50.054;8.790;2023-06-22T06:10:26;22.80;99.90
38604;DHT22;24924;50.054;8.790;2023-06-22T06:12:53;22.80;99.90
38604;DHT22;24924;50.054;8.790;2023-06-22T06:15:19;22.90;99.90
38604;DHT22;24924;50.054;8.790;2023-06-22T06:17:49;23.00;99.90
38604;DHT22;24924;50.054;8.790;2023-06-22T06:20:18;23.20;99.90
38604;DHT22;24924;50.054;8.790;2023-06-22T06:22:44;23.30;99.90
38604;DHT22;24924;50.054;8.790;2023-06-22T06:25:11;23.30;99.90
38604;DHT22;24924;50.054;8.790;2023-06-22T06:27:49;23.30;99.90
38604;DHT22;24924;50.054;8.790;2023-06-22T06:30:16;23.50;99.90
38604;DHT22;24924;50.054;8.790;2023-06-22T06:32:43;23.60;99.90
38604;DHT22;24924;50.054;8.790;2023-06-22T06:35:11;23.70;99.90
38604;DHT22;24924;50.054;8.790;2023-06-22T06:37:39;23.70;99.90
38604;DHT22;24924;50.054;8.790;2023-06-22T06:40:06;23.80;99.90
38604;DHT22;24924;50.054;8.790;2023-06-22T06:42:43;23.90;99.90
38604;DHT22;24924;50.054;8.790;2023-06-22T06:45:12;24.10;99.90
38604;DHT22;24924;50.054;8.790;2023-06-22T06:47:39;24.10;99.90
38604;DHT22;24924;50.054;8.790;2023-06-22T06:50:06;24.10;99.90
38604;DHT22;24924;50.054;8.790;2023-06-22T06:52:32;24.30;99.90
38604;DHT22;24924;50.054;8.790;2023-06-22T06:54:58;24.40;99.90
38604;DHT22;24924;50.054;8.790;2023-06-22T06:57:24;24.40;99.90
38604;DHT22;24924;50.054;8.790;2023-06-22T06:59:57;24.50;99.90
38604;DHT22;24924;50.054;8.790;2023-06-22T07:02:23;24.50;99.90
38604;DHT22;24924;50.054;8.790;2023-06-22T07:04:49;24.60;99.90
38604;DHT22;24924;50.054;8.790;2023-06-22T07:07:16;24.80;99.90
38604;DHT22;24924;50.054;8.790;2023-06-22T07:09:41;24.90;99.90
38604;DHT22;24924;50.054;8.790;2023-06-22T07:12:08;24.90;99.90
38604;DHT22;24924;50.054;8.790;2023-06-22T07:14:33;24.90;99.90
38604;DHT22;24924;50.054;8.790;2023-06-22T07:16:59;25.20;99.90
38604;DHT22;24924;50.054;8.790;2023-06-22T07:19:26;25.20;99.90
38604;DHT22;24924;50.054;8.790;2023-06-22T07:21:55;25.30;99.90
38604;DHT22;24924;50.054;8.790;2023-06-22T07:24:21;25.20;99.90
38604;DHT22;24924;50.054;8.790;2023-06-22T07:26:48;25.50;99.90
38604;DHT22;24924;50.054;8.790;2023-06-22T07:29:22;25.60;99.90
38604;DHT22;24924;50.054;8.790;2023-06-22T07:31:50;25.70;99.90
38604;DHT22;24924;50.054;8.790;2023-06-22T07:34:17;25.80;99.90
38604;DHT22;24924;50.054;8.790;2023-06-22T07:36:43;25.80;99.90
38604;DHT22;24924;50.054;8.790;2023-06-22T07:39:09;25.90;99.90
38604;DHT22;24924;50.054;8.790;2023-06-22T07:41:35;26.20;99.90
38604;DHT22;24924;50.054;8.790;2023-06-22T07:44:02;26.20;99.90
38604;DHT22;24924;50.054;8.790;2023-06-22T07:46:28;26.20;99.90
38604;DHT22;24924;50.054;8.790;2023-06-22T07:48:56;26.40;99.90
38604;DHT22;24924;50.054;8.790;2023-06-22T07:51:22;26.60;99.90
38604;DHT22;24924;50.054;8.790;2023-06-22T07:53:48;26.60;99.90
38604;DHT22;24924;50.054;8.790;2023-06-22T07:56:14;26.60;99.90
38604;DHT22;24924;50.054;8.790;2023-06-22T07:58:44;26.70;99.90
38604;DHT22;24924;50.054;8.790;2023-06-22T08:01:11;26.80;99.90
38604;DHT22;24924;50.054;8.790;2023-06-22T08:03:37;26.80;99.90
38604;DHT22;24924;50.054;8.790;2023-06-22T08:06:03;26.80;99.90
38604;DHT22;24924;50.054;8.790;2023-06-22T08:08:29;26.80;99.90
38604;DHT22;24924;50.054;8.790;2023-06-22T08:10:55;27.10;99.90
38604;DHT22;24924;50.054;8.790;2023-06-22T08:13:21;27.20;99.90
38604;DHT22;24924;50.054;8.790;2023-06-22T08:15:46;27.30;99.90
38604;DHT22;24924;50.054;8.790;2023-06-22T08:18:12;27.20;99.90
38604;DHT22;24924;50.054;8.790;2023-06-22T08:20:38;27.40;99.90
38604;DHT22;24924;50.054;8.790;2023-06-22T08:23:04;27.60;99.90
38604;DHT22;24924;50.054;8.790;2023-06-22T08:25:33;27.70;99.90
38604;DHT22;24924;50.054;8.790;2023-06-22T08:27:59;27.80;99.90
38604;DHT22;24924;50.054;8.790;2023-06-22T08:30:25;27.90;99.90
38604;DHT22;24924;50.054;8.790;2023-06-22T08:32:51;27.90;99.90
38604;DHT22;24924;50.054;8.790;2023-06-22T08:35:17;28.20;99.90
38604;DHT22;24924;50.054;8.790;2023-06-22T08:37:42;28.10;99.90
38604;DHT22;24924;50.054;8.790;2023-06-22T08:40:09;28.30;99.90
38604;DHT22;24924;50.054;8.790;2023-06-22T08:42:36;28.20;99.90
38604;DHT22;24924;50.054;8.790;2023-06-22T08:45:03;28.00;99.90
38604;DHT22;24924;50.054;8.790;2023-06-22T08:47:29;28.20;99.90
38604;DHT22;24924;50.054;8.790;2023-06-22T08:49:54;28.60;99.90
38604;DHT22;24924;50.054;8.790;2023-06-22T08:52:20;28.50;99.90
38604;DHT22;24924;50.054;8.790;2023-06-22T08:54:47;28.50;99.90
38604;DHT22;24924;50.054;8.790;2023-06-22T08:57:12;28.60;99.90
38604;DHT22;24924;50.054;8.790;2023-06-22T08:59:38;28.90;99.90
38604;DHT22;24924;50.054;8.790;2023-06-22T09:02:04;29.20;99.90
38604;DHT22;24924;50.054;8.790;2023-06-22T09:04:30;29.30;99.90
38604;DHT22;24924;50.054;8.790;2023-06-22T09:07:02;29.30;99.90
38604;DHT22;24924;50.054;8.790;2023-06-22T09:09:28;29.30;99.90
38604;DHT22;24924;50.054;8.790;2023-06-22T09:11:54;29.40;99.90
38604;DHT22;24924;50.054;8.790;2023-06-22T09:14:20;29.30;99.90
38604;DHT22;24924;50.054;8.790;2023-06-22T09:16:45;29.40;99.90
38604;DHT22;24924;50.054;8.790;2023-06-22T09:19:11;29.70;99.90
38604;DHT22;24924;50.054;8.790;2023-06-22T09:21:38;29.80;99.90
38604;DHT22;24924;50.054;8.790;2023-06-22T09:24:03;29.80;99.90
38604;DHT22;24924;50.054;8.790;2023-06-22T09:26:29;29.60;99.90
38604;DHT22;24924;50.054;8.790;2023-06-22T09:28:55;29.70;99.90
38604;DHT22;24924;50.054;8.790;2023-06-22T09:31:21;29.80;99.90
38604;DHT22;24924;50.054;8.790;2023-06-22T09:33:55;30.00;99.90
38604;DHT22;24924;50.054;8.790;2023-06-22T09:36:21;30.50;99.90
38604;DHT22;24924;50.054;8.790;2023-06-22T09:38:47;30.10;99.90
38604;DHT22;24924;50.054;8.790;2023-06-22T09:41:13;30.20;99.90
38604;DHT22;24924;50.054;8.790;2023-06-22T09:43:39;30.30;99.90
38604;DHT22;24924;50.054;8.790;2023-06-22T09:46:05;30.50;99.90
38604;DHT22;24924;50.054;8.790;2023-06-22T09:48:32;30.10;99.90
38604;DHT22;24924;50.054;8.790;2023-06-22T09:50:57;30.10;99.90
38604;DHT22;24924;50.054;8.790;2023-06-22T09:53:23;30.10;99.90
38604;DHT22;24924;50.054;8.790;2023-06-22T09:55:49;29.90;99.90
38604;DHT22;24924;50.054;8.790;2023-06-22T09:58:15;29.80;99.90
38604;DHT22;24924;50.054;8.790;2023-06-22T10:00:41;29.90;99.90
38604;DHT22;24924;50.054;8.790;2023-06-22T10:03:10;30.10;99.90
38604;DHT22;24924;50.054;8.790;2023-06-22T10:05:35;30.30;99.90
38604;DHT22;24924;50.054;8.790;2023-06-22T10:08:01;30.30;99.90
38604;DHT22;24924;50.054;8.790;2023-06-22T10:10:26;30.60;99.90
38604;DHT22;24924;50.054;8.790;2023-06-22T10:12:56;30.50;99.90
38604;DHT22;24924;50.054;8.790;2023-06-22T10:15:22;30.70;99.90
38604;DHT22;24924;50.054;8.790;2023-06-22T10:17:48;30.70;99.90
38604;DHT22;24924;50.054;8.790;2023-06-22T10:20:14;30.60;99.90
38604;DHT22;24924;50.054;8.790;2023-06-22T10:22:41;30.50;99.90
38604;DHT22;24924;50.054;8.790;2023-06-22T10:25:08;30.70;99.90
38604;DHT22;24924;50.054;8.790;2023-06-22T10:27:34;30.60;99.90
38604;DHT22;24924;50.054;8.790;2023-06-22T10:30:00;30.70;99.90
38604;DHT22;24924;50.054;8.790;2023-06-22T10:32:26;31.10;99.90
38604;DHT22;24924;50.054;8.790;2023-06-22T10:34:54;31.10;99.90
38604;DHT22;24924;50.054;8.790;2023-06-22T10:37:19;31.20;99.90
38604;DHT22;24924;50.054;8.790;2023-06-22T10:39:45;31.10;99.90
38604;DHT22;24924;50.054;8.790;2023-06-22T10:42:12;31.20;99.90
38604;DHT22;24924;50.054;8.790;2023-06-22T10:44:38;31.20;99.90
38604;DHT22;24924;50.054;8.790;2023-06-22T10:47:06;31.40;99.90
38604;DHT22;24924;50.054;8.790;2023-06-22T10:49:32;31.50;99.90
38604;DHT22;24924;50.054;8.790;2023-06-22T10:51:57;31.80;99.90
38604;DHT22;24924;50.054;8.790;2023-06-22T10:54:23;31.80;99.90
38604;DHT22;24924;50.054;8.790;2023-06-22T10:56:49;32.00;99.90
38604;DHT22;24924;50.054;8.790;2023-06-22T10:59:14;32.10;99.90
38604;DHT22;24924;50.054;8.790;2023-06-22T11:01:40;32.10;99.90
38604;DHT22;24924;50.054;8.790;2023-06-22T11:04:05;32.20;99.90
38604;DHT22;24924;50.054;8.790;2023-06-22T11:06:31;32.40;99.40
38604;DHT22;24924;50.054;8.790;2023-06-22T11:08:57;32.50;98.90
38604;DHT22;24924;50.054;8.790;2023-06-22T11:11:25;32.60;99.90
38604;DHT22;24924;50.054;8.790;2023-06-22T11:13:52;32.60;99.50
38604;DHT22;24924;50.054;8.790;2023-06-22T11:16:18;32.60;98.10
38604;DHT22;24924;50.054;8.790;2023-06-22T11:18:44;32.30;98.70
38604;DHT22;24924;50.054;8.790;2023-06-22T11:21:09;32.40;98.50
38604;DHT22;24924;50.054;8.790;2023-06-22T11:23:35;32.30;98.70
38604;DHT22;24924;50.054;8.790;2023-06-22T11:26:00;32.40;98.20
38604;DHT22;24924;50.054;8.790;2023-06-22T11:28:27;32.40;98.50
38604;DHT22;24924;50.054;8.790;2023-06-22T11:30:53;32.70;98.50
38604;DHT22;24924;50.054;8.790;2023-06-22T11:33:19;32.90;98.60
38604;DHT22;24924;50.054;8.790;2023-06-22T11:35:44;32.60;97.40
38604;DHT22;24924;50.054;8.790;2023-06-22T11:38:10;32.60;98.80
38604;DHT22;24924;50.054;8.790;2023-06-22T11:40:36;32.60;98.70
38604;DHT22;24924;50.054;8.790;2023-06-22T11:43:02;32.60;96.70
38604;DHT22;24924;50.054;8.790;2023-06-22T11:45:28;32.60;96.90
38604;DHT22;24924;50.054;8.790;2023-06-22T11:47:54;32.60;97.70
38604;DHT22;24924;50.054;8.790;2023-06-22T11:50:19;32.60;98.20
38604;DHT22;24924;50.054;8.790;2023-06-22T11:52:45;32.60;98.00
38604;DHT22;24924;50.054;8.790;2023-06-22T11:55:11;32.60;98.00
38604;DHT22;24924;50.054;8.790;2023-06-22T11:57:37;32.30;98.00
38604;DHT22;24924;50.054;8.790;2023-06-22T12:00:06;32.30;98.30
38604;DHT22;24924;50.054;8.790;2023-06-22T12:02:39;32.40;97.60
38604;DHT22;24924;50.054;8.790;2023-06-22T12:05:05;32.60;98.10
38604;DHT22;24924;50.054;8.790;2023-06-22T12:07:31;32.50;98.10
38604;DHT22;24924;50.054;8.790;2023-06-22T12:09:56;32.60;97.90
38604;DHT22;24924;50.054;8.790;2023-06-22T12:12:22;32.40;98.20
38604;DHT22;24924;50.054;8.790;2023-06-22T12:14:47;32.40;98.30
38604;DHT22;24924;50.054;8.790;2023-06-22T12:17:13;32.50;98.10
38604;DHT22;24924;50.054;8.790;2023-06-22T12:19:39;32.10;97.30
38604;DHT22;24924;50.054;8.790;2023-06-22T12:22:04;32.20;97.90
38604;DHT22;24924;50.054;8.790;2023-06-22T12:24:30;32.30;97.80
38604;DHT22;24924;50.054;8.790;2023-06-22T12:26:56;32.30;97.50
38604;DHT22;24924;50.054;8.790;2023-06-22T12:29:21;32.40;97.40
38604;DHT22;24924;50.054;8.790;2023-06-22T12:31:47;32.30;97.00
38604;DHT22;24924;50.054;8.790;2023-06-22T12:34:12;32.30;97.30
38604;DHT22;24924;50.054;8.790;2023-06-22T12:36:38;32.40;97.40
38604;DHT22;24924;50.054;8.790;2023-06-22T12:39:04;32.40;97.50
38604;DHT22;24924;50.054;8.790;2023-06-22T12:41:30;31.90;96.90
38604;DHT22;24924;50.054;8.790;2023-06-22T12:43:56;31.50;97.70
38604;DHT22;24924;50.054;8.790;2023-06-22T12:46:21;31.50;98.00
38604;DHT22;24924;50.054;8.790;2023-06-22T12:48:47;31.80;98.40
38604;DHT22;24924;50.054;8.790;2023-06-22T12:51:20;31.60;97.60
38604;DHT22;24924;50.054;8.790;2023-06-22T12:53:46;31.70;97.70
38604;DHT22;24924;50.054;8.790;2023-06-22T12:56:11;31.80;98.40
38604;DHT22;24924;50.054;8.790;2023-06-22T12:58:37;32.10;98.30
38604;DHT22;24924;50.054;8.790;2023-06-22T13:01:02;32.20;97.40
38604;DHT22;24924;50.054;8.790;2023-06-22T13:03:28;32.40;98.50
38604;DHT22;24924;50.054;8.790;2023-06-22T13:05:54;32.40;98.40
38604;DHT22;24924;50.054;8.790;2023-06-22T13:08:20;32.00;97.50
38604;DHT22;24924;50.054;8.790;2023-06-22T13:10:46;32.20;98.20
38604;DHT22;24924;50.054;8.790;2023-06-22T13:13:11;32.40;98.70
38604;DHT22;24924;50.054;8.790;2023-06-22T13:15:37;32.50;97.90
38604;DHT22;24924;50.054;8.790;2023-06-22T13:18:03;32.40;98.10
38604;DHT22;24924;50.054;8.790;2023-06-22T13:20:29;32.40;97.50
38604;DHT22;24924;50.054;8.790;2023-06-22T13:22:54;32.10;97.90
38604;DHT22;24924;50.054;8.790;2023-06-22T13:25:21;32.00;98.10
38604;DHT22;24924;50.054;8.790;2023-06-22T13:27:49;32.00;98.70
38604;DHT22;24924;50.054;8.790;2023-06-22T13:30:15;31.90;98.20
38604;DHT22;24924;50.054;8.790;2023-06-22T13:32:41;31.90;98.10
38604;DHT22;24924;50.054;8.790;2023-06-22T13:35:11;31.80;98.40
38604;DHT22;24924;50.054;8.790;2023-06-22T13:37:37;32.00;98.40
38604;DHT22;24924;50.054;8.790;2023-06-22T13:40:04;32.10;98.70
38604;DHT22;24924;50.054;8.790;2023-06-22T13:42:32;32.20;98.40
38604;DHT22;24924;50.054;8.790;2023-06-22T13:44:58;32.40;98.10
38604;DHT22;24924;50.054;8.790;2023-06-22T13:47:24;32.40;97.60
38604;DHT22;24924;50.054;8.790;2023-06-22T13:49:49;32.70;98.40
38604;DHT22;24924;50.054;8.790;2023-06-22T13:52:15;32.90;97.50
38604;DHT22;24924;50.054;8.790;2023-06-22T13:54:41;33.20;97.60
38604;DHT22;24924;50.054;8.790;2023-06-22T13:57:07;33.10;96.60
38604;DHT22;24924;50.054;8.790;2023-06-22T13:59:33;33.20;97.00
38604;DHT22;24924;50.054;8.790;2023-06-22T14:01:59;33.50;96.70
38604;DHT22;24924;50.054;8.790;2023-06-22T14:04:24;33.30;96.50
38604;DHT22;24924;50.054;8.790;2023-06-22T16:41:54;27.80;99.90
38604;DHT22;24924;50.054;8.790;2023-06-22T16:44:20;27.40;99.90
38604;DHT22;24924;50.054;8.790;2023-06-22T16:46:45;27.20;99.90
38604;DHT22;24924;50.054;8.790;2023-06-22T16:49:11;27.00;99.90
38604;DHT22;24924;50.054;8.790;2023-06-22T16:51:37;26.90;99.90
38604;DHT22;24924;50.054;8.790;2023-06-22T16:54:02;26.70;99.90
38604;DHT22;24924;50.054;8.790;2023-06-22T16:56:29;26.60;99.90
38604;DHT22;24924;50.054;8.790;2023-06-22T16:58:56;26.50;99.90
38604;DHT22;24924;50.054;8.790;2023-06-22T17:01:23;28.00;99.90
38604;DHT22;24924;50.054;8.790;2023-06-22T17:04:09;26.20;99.90
38604;DHT22;24924;50.054;8.790;2023-06-22T17:06:39;26.20;99.90
38604;DHT22;24924;50.054;8.790;2023-06-22T17:09:11;26.20;99.90
38604;DHT22;24924;50.054;8.790;2023-06-22T17:11:36;26.30;99.90
38604;DHT22;24924;50.054;8.790;2023-06-22T17:14:02;26.30;99.90
38604;DHT22;24924;50.054;8.790;2023-06-22T17:16:31;26.50;99.90
38604;DHT22;24924;50.054;8.790;2023-06-22T17:18:57;26.40;99.90
38604;DHT22;24924;50.054;8.790;2023-06-22T17:21:24;26.20;99.90
38604;DHT22;24924;50.054;8.790;2023-06-22T17:23:50;26.20;99.90
38604;DHT22;24924;50.054;8.790;2023-06-22T17:26:17;26.20;99.90
38604;DHT22;24924;50.054;8.790;2023-06-22T17:28:51;26.20;99.90
38604;DHT22;24924;50.054;8.790;2023-06-22T17:31:17;26.10;99.90
38604;DHT22;24924;50.054;8.790;2023-06-22T17:33:43;26.00;99.90
38604;DHT22;24924;50.054;8.790;2023-06-22T17:36:11;25.80;99.90
38604;DHT22;24924;50.054;8.790;2023-06-22T17:38:38;25.60;99.90
38604;DHT22;24924;50.054;8.790;2023-06-22T17:41:04;26.50;99.90
38604;DHT22;24924;50.054;8.790;2023-06-22T17:43:29;25.40;99.90
38604;DHT22;24924;50.054;8.790;2023-06-22T17:45:59;25.30;99.90
38604;DHT22;24924;50.054;8.790;2023-06-22T17:48:25;25.20;99.90
38604;DHT22;24924;50.054;8.790;2023-06-22T17:50:52;25.30;99.90
38604;DHT22;24924;50.054;8.790;2023-06-22T17:53:18;25.30;99.90
38604;DHT22;24924;50.054;8.790;2023-06-22T17:55:44;25.20;99.90
38604;DHT22;24924;50.054;8.790;2023-06-22T17:58:10;25.20;99.90
38604;DHT22;24924;50.054;8.790;2023-06-22T18:00:36;25.20;99.90
38604;DHT22;24924;50.054;8.790;2023-06-22T18:03:02;25.10;99.90
38604;DHT22;24924;50.054;8.790;2023-06-22T18:05:32;25.10;99.90